sensor_id;sensor_type;location;lat;lon;timestamp;P1;durP1;ratioP1;P2;durP2;ratioP2
75090;SDS011;63674;48.048;8.306;2023-09-30T00:00:07;12.57;;;4.10;;
75090;SDS011;63674;48.048;8.306;2023-09-30T00:02:36;15.27;;;4.28;;
75090;SDS011;63674;48.048;8.306;2023-09-30T00:05:06;14.07;;;3.83;;
75090;SDS011;63674;48.048;8.306;2023-09-30T00:07:36;15.80;;;4.10;;
75090;SDS011;63674;48.048;8.306;2023-09-30T00:10:07;12.32;;;4.35;;
75090;SDS011;63674;48.048;8.306;2023-09-30T00:12:37;11.82;;;4.10;;
75090;SDS011;63674;48.048;8.306;2023-09-30T00:15:06;16.77;;;4.00;;
75090;SDS011;63674;48.048;8.306;2023-09-30T00:17:35;14.27;;;3.97;;
75090;SDS011;63674;48.048;8.306;2023-09-30T00:20:04;12.50;;;3.47;;
75090;SDS011;63674;48.048;8.306;2023-09-30T00:22:34;15.65;;;4.13;;
75090;SDS011;63674;48.048;8.306;2023-09-30T00:25:03;15.25;;;4.15;;
75090;SDS011;63674;48.048;8.306;2023-09-30T00:27:37;12.60;;;3.80;;
75090;SDS011;63674;48.048;8.306;2023-09-30T00:30:06;12.87;;;3.73;;
75090;SDS011;63674;48.048;8.306;2023-09-30T00:32:36;12.02;;;3.40;;
75090;SDS011;63674;48.048;8.306;2023-09-30T00:35:06;9.82;;;3.50;;
75090;SDS011;63674;48.048;8.306;2023-09-30T00:37:37;13.68;;;3.83;;
75090;SDS011;63674;48.048;8.306;2023-09-30T00:40:08;14.10;;;4.28;;
75090;SDS011;63674;48.048;8.306;2023-09-30T00:42:40;12.23;;;3.83;;
75090;SDS011;63674;48.048;8.306;2023-09-30T00:45:09;12.93;;;3.60;;
75090;SDS011;63674;48.048;8.306;2023-09-30T00:47:39;13.63;;;4.40;;
75090;SDS011;63674;48.048;8.306;2023-09-30T00:50:09;12.23;;;4.07;;
75090;SDS011;63674;48.048;8.306;2023-09-30T00:52:39;13.32;;;4.03;;
75090;SDS011;63674;48.048;8.306;2023-09-30T00:55:11;13.63;;;3.83;;
75090;SDS011;63674;48.048;8.306;2023-09-30T00:57:40;12.85;;;3.80;;
75090;SDS011;63674;48.048;8.306;2023-09-30T01:00:11;10.98;;;3.45;;
75090;SDS011;63674;48.048;8.306;2023-09-30T01:02:40;10.02;;;3.22;;
75090;SDS011;63674;48.048;8.306;2023-09-30T01:05:11;12.18;;;3.38;;
75090;SDS011;63674;48.048;8.306;2023-09-30T01:07:40;13.77;;;3.47;;
75090;SDS011;63674;48.048;8.306;2023-09-30T01:10:08;10.93;;;3.05;;
75090;SDS011;63674;48.048;8.306;2023-09-30T01:12:57;10.80;;;3.20;;
75090;SDS011;63674;48.048;8.306;2023-09-30T01:15:44;11.02;;;2.97;;
75090;SDS011;63674;48.048;8.306;2023-09-30T01:18:32;11.07;;;3.20;;
75090;SDS011;63674;48.048;8.306;2023-09-30T01:21:19;8.87;;;2.73;;
75090;SDS011;63674;48.048;8.306;2023-09-30T01:24:08;7.90;;;2.40;;
75090;SDS011;63674;48.048;8.306;2023-09-30T01:26:56;8.35;;;2.60;;
75090;SDS011;63674;48.048;8.306;2023-09-30T01:29:43;11.50;;;2.92;;
75090;SDS011;63674;48.048;8.306;2023-09-30T01:32:30;11.75;;;2.65;;
75090;SDS011;63674;48.048;8.306;2023-09-30T01:35:17;10.30;;;2.43;;
75090;SDS011;63674;48.048;8.306;2023-09-30T01:38:05;9.93;;;2.40;;
75090;SDS011;63674;48.048;8.306;2023-09-30T01:40:53;11.43;;;3.17;;
75090;SDS011;63674;48.048;8.306;2023-09-30T01:43:45;9.75;;;2.88;;
75090;SDS011;63674;48.048;8.306;2023-09-30T01:46:32;10.02;;;2.83;;
75090;SDS011;63674;48.048;8.306;2023-09-30T01:49:20;9.10;;;2.50;;
75090;SDS011;63674;48.048;8.306;2023-09-30T01:52:09;12.45;;;2.83;;
75090;SDS011;63674;48.048;8.306;2023-09-30T01:54:56;11.55;;;2.83;;
75090;SDS011;63674;48.048;8.306;2023-09-30T01:57:44;10.70;;;3.22;;
75090;SDS011;63674;48.048;8.306;2023-09-30T02:00:31;11.10;;;2.85;;
75090;SDS011;63674;48.048;8.306;2023-09-30T02:03:20;10.63;;;2.83;;
75090;SDS011;63674;48.048;8.306;2023-09-30T02:06:09;9.43;;;2.40;;
75090;SDS011;63674;48.048;8.306;2023-09-30T02:08:56;8.18;;;2.60;;
75090;SDS011;63674;48.048;8.306;2023-09-30T02:11:43;10.95;;;3.05;;
75090;SDS011;63674;48.048;8.306;2023-09-30T02:14:32;12.00;;;3.20;;
75090;SDS011;63674;48.048;8.306;2023-09-30T02:17:19;9.23;;;2.40;;
75090;SDS011;63674;48.048;8.306;2023-09-30T02:20:08;10.82;;;2.72;;
75090;SDS011;63674;48.048;8.306;2023-09-30T02:23:01;8.73;;;2.53;;
75090;SDS011;63674;48.048;8.306;2023-09-30T02:25:51;10.20;;;2.65;;
75090;SDS011;63674;48.048;8.306;2023-09-30T02:28:38;10.38;;;2.97;;
75090;SDS011;63674;48.048;8.306;2023-09-30T02:31:26;10.87;;;2.73;;
75090;SDS011;63674;48.048;8.306;2023-09-30T02:34:14;12.23;;;2.80;;
75090;SDS011;63674;48.048;8.306;2023-09-30T02:37:01;9.65;;;2.80;;
75090;SDS011;63674;48.048;8.306;2023-09-30T02:39:48;8.90;;;2.80;;
75090;SDS011;63674;48.048;8.306;2023-09-30T02:42:35;10.93;;;3.03;;
75090;SDS011;63674;48.048;8.306;2023-09-30T02:45:24;11.10;;;3.40;;
75090;SDS011;63674;48.048;8.306;2023-09-30T02:48:12;9.95;;;2.83;;
75090;SDS011;63674;48.048;8.306;2023-09-30T02:51:00;11.20;;;3.30;;
75090;SDS011;63674;48.048;8.306;2023-09-30T02:53:47;9.80;;;2.83;;
75090;SDS011;63674;48.048;8.306;2023-09-30T02:56:34;9.70;;;3.17;;
75090;SDS011;63674;48.048;8.306;2023-09-30T02:59:22;13.87;;;3.13;;
75090;SDS011;63674;48.048;8.306;2023-09-30T03:02:09;10.88;;;2.90;;
75090;SDS011;63674;48.048;8.306;2023-09-30T03:04:57;10.35;;;2.83;;
75090;SDS011;63674;48.048;8.306;2023-09-30T03:07:44;12.52;;;3.53;;
75090;SDS011;63674;48.048;8.306;2023-09-30T03:10:32;11.23;;;3.33;;
75090;SDS011;63674;48.048;8.306;2023-09-30T03:13:19;10.77;;;2.87;;
75090;SDS011;63674;48.048;8.306;2023-09-30T03:16:06;10.93;;;2.80;;
75090;SDS011;63674;48.048;8.306;2023-09-30T03:18:53;11.50;;;3.17;;
75090;SDS011;63674;48.048;8.306;2023-09-30T03:21:43;8.43;;;2.88;;
75090;SDS011;63674;48.048;8.306;2023-09-30T03:24:30;9.98;;;2.85;;
75090;SDS011;63674;48.048;8.306;2023-09-30T03:27:18;13.53;;;2.90;;
75090;SDS011;63674;48.048;8.306;2023-09-30T03:30:05;12.77;;;3.00;;
75090;SDS011;63674;48.048;8.306;2023-09-30T03:32:56;8.82;;;2.53;;
75090;SDS011;63674;48.048;8.306;2023-09-30T03:35:25;10.05;;;2.95;;
75090;SDS011;63674;48.048;8.306;2023-09-30T03:37:56;8.52;;;2.95;;
75090;SDS011;63674;48.048;8.306;2023-09-30T03:40:24;11.23;;;3.33;;
75090;SDS011;63674;48.048;8.306;2023-09-30T03:42:55;9.85;;;2.70;;
75090;SDS011;63674;48.048;8.306;2023-09-30T03:45:23;10.57;;;2.95;;
75090;SDS011;63674;48.048;8.306;2023-09-30T03:47:52;10.30;;;3.78;;
75090;SDS011;63674;48.048;8.306;2023-09-30T03:50:21;10.80;;;3.17;;
75090;SDS011;63674;48.048;8.306;2023-09-30T03:52:50;11.17;;;3.43;;
75090;SDS011;63674;48.048;8.306;2023-09-30T03:55:20;11.98;;;2.80;;
75090;SDS011;63674;48.048;8.306;2023-09-30T03:57:50;14.57;;;2.60;;
75090;SDS011;63674;48.048;8.306;2023-09-30T04:00:19;8.88;;;2.47;;
75090;SDS011;63674;48.048;8.306;2023-09-30T04:02:49;8.60;;;2.55;;
75090;SDS011;63674;48.048;8.306;2023-09-30T04:05:21;8.90;;;2.60;;
75090;SDS011;63674;48.048;8.306;2023-09-30T04:07:55;9.93;;;2.45;;
75090;SDS011;63674;48.048;8.306;2023-09-30T04:10:25;9.23;;;2.60;;
75090;SDS011;63674;48.048;8.306;2023-09-30T04:12:56;8.00;;;2.42;;
75090;SDS011;63674;48.048;8.306;2023-09-30T04:15:25;9.23;;;2.50;;
75090;SDS011;63674;48.048;8.306;2023-09-30T04:17:53;10.20;;;2.87;;
75090;SDS011;63674;48.048;8.306;2023-09-30T04:20:22;10.63;;;2.72;;
75090;SDS011;63674;48.048;8.306;2023-09-30T04:22:53;10.10;;;2.97;;
75090;SDS011;63674;48.048;8.306;2023-09-30T04:25:25;10.70;;;2.53;;
75090;SDS011;63674;48.048;8.306;2023-09-30T04:27:54;9.95;;;2.60;;
75090;SDS011;63674;48.048;8.306;2023-09-30T04:30:24;11.13;;;3.03;;
75090;SDS011;63674;48.048;8.306;2023-09-30T04:32:54;10.30;;;2.50;;
75090;SDS011;63674;48.048;8.306;2023-09-30T04:35:23;9.00;;;2.85;;
75090;SDS011;63674;48.048;8.306;2023-09-30T04:37:53;11.48;;;2.60;;
75090;SDS011;63674;48.048;8.306;2023-09-30T04:40:22;9.50;;;2.58;;
75090;SDS011;63674;48.048;8.306;2023-09-30T04:42:53;9.57;;;2.80;;
75090;SDS011;63674;48.048;8.306;2023-09-30T04:45:25;9.00;;;2.60;;
75090;SDS011;63674;48.048;8.306;2023-09-30T04:47:53;8.25;;;2.20;;
75090;SDS011;63674;48.048;8.306;2023-09-30T04:50:23;8.95;;;2.72;;
75090;SDS011;63674;48.048;8.306;2023-09-30T04:52:52;8.50;;;2.30;;
75090;SDS011;63674;48.048;8.306;2023-09-30T04:55:22;10.13;;;2.83;;
75090;SDS011;63674;48.048;8.306;2023-09-30T04:57:51;11.20;;;2.63;;
75090;SDS011;63674;48.048;8.306;2023-09-30T05:00:21;10.15;;;2.50;;
75090;SDS011;63674;48.048;8.306;2023-09-30T05:02:53;10.00;;;2.70;;
75090;SDS011;63674;48.048;8.306;2023-09-30T05:05:23;9.45;;;2.88;;
75090;SDS011;63674;48.048;8.306;2023-09-30T05:07:52;8.60;;;2.80;;
75090;SDS011;63674;48.048;8.306;2023-09-30T05:10:20;8.23;;;2.17;;
75090;SDS011;63674;48.048;8.306;2023-09-30T05:12:50;7.93;;;2.53;;
75090;SDS011;63674;48.048;8.306;2023-09-30T05:15:22;7.93;;;2.45;;
75090;SDS011;63674;48.048;8.306;2023-09-30T05:17:52;9.75;;;2.60;;
75090;SDS011;63674;48.048;8.306;2023-09-30T05:20:20;9.40;;;2.60;;
75090;SDS011;63674;48.048;8.306;2023-09-30T05:22:49;7.80;;;2.15;;
75090;SDS011;63674;48.048;8.306;2023-09-30T05:25:18;10.10;;;2.78;;
75090;SDS011;63674;48.048;8.306;2023-09-30T05:27:51;10.10;;;2.83;;
75090;SDS011;63674;48.048;8.306;2023-09-30T05:30:21;8.60;;;2.92;;
75090;SDS011;63674;48.048;8.306;2023-09-30T05:32:51;10.43;;;3.23;;
75090;SDS011;63674;48.048;8.306;2023-09-30T05:35:20;10.20;;;2.63;;
75090;SDS011;63674;48.048;8.306;2023-09-30T05:37:50;9.68;;;2.83;;
75090;SDS011;63674;48.048;8.306;2023-09-30T05:40:19;9.48;;;3.05;;
75090;SDS011;63674;48.048;8.306;2023-09-30T05:45:23;10.97;;;3.70;;
75090;SDS011;63674;48.048;8.306;2023-09-30T05:47:53;12.30;;;4.40;;
75090;SDS011;63674;48.048;8.306;2023-09-30T05:50:23;12.48;;;4.20;;
75090;SDS011;63674;48.048;8.306;2023-09-30T05:52:54;9.77;;;3.10;;
75090;SDS011;63674;48.048;8.306;2023-09-30T05:55:23;10.55;;;3.10;;
75090;SDS011;63674;48.048;8.306;2023-09-30T05:57:53;11.60;;;3.00;;
75090;SDS011;63674;48.048;8.306;2023-09-30T06:00:24;10.98;;;2.67;;
75090;SDS011;63674;48.048;8.306;2023-09-30T06:02:58;8.65;;;2.58;;
75090;SDS011;63674;48.048;8.306;2023-09-30T06:05:27;10.32;;;2.88;;
75090;SDS011;63674;48.048;8.306;2023-09-30T06:07:58;10.25;;;3.17;;
75090;SDS011;63674;48.048;8.306;2023-09-30T06:10:29;9.43;;;2.83;;
75090;SDS011;63674;48.048;8.306;2023-09-30T06:12:58;10.70;;;2.88;;
75090;SDS011;63674;48.048;8.306;2023-09-30T06:15:28;8.73;;;2.80;;
75090;SDS011;63674;48.048;8.306;2023-09-30T06:17:58;9.35;;;3.15;;
75090;SDS011;63674;48.048;8.306;2023-09-30T06:20:27;9.32;;;3.00;;
75090;SDS011;63674;48.048;8.306;2023-09-30T06:22:57;8.30;;;2.53;;
75090;SDS011;63674;48.048;8.306;2023-09-30T06:25:27;10.07;;;3.30;;
75090;SDS011;63674;48.048;8.306;2023-09-30T06:27:57;11.32;;;3.20;;
75090;SDS011;63674;48.048;8.306;2023-09-30T06:30:26;12.40;;;3.42;;
75090;SDS011;63674;48.048;8.306;2023-09-30T06:32:59;13.93;;;4.00;;
75090;SDS011;63674;48.048;8.306;2023-09-30T06:35:32;10.10;;;3.50;;
75090;SDS011;63674;48.048;8.306;2023-09-30T06:38:24;10.75;;;2.80;;
75090;SDS011;63674;48.048;8.306;2023-09-30T06:40:53;10.73;;;2.85;;
75090;SDS011;63674;48.048;8.306;2023-09-30T06:43:22;10.55;;;2.80;;
75090;SDS011;63674;48.048;8.306;2023-09-30T06:45:51;9.95;;;2.80;;
75090;SDS011;63674;48.048;8.306;2023-09-30T06:48:22;15.40;;;3.80;;
75090;SDS011;63674;48.048;8.306;2023-09-30T06:50:51;11.02;;;3.20;;
75090;SDS011;63674;48.048;8.306;2023-09-30T06:53:20;11.40;;;3.40;;
75090;SDS011;63674;48.048;8.306;2023-09-30T06:55:50;13.13;;;3.72;;
75090;SDS011;63674;48.048;8.306;2023-09-30T06:58:19;9.70;;;3.00;;
75090;SDS011;63674;48.048;8.306;2023-09-30T07:00:48;10.30;;;3.00;;
75090;SDS011;63674;48.048;8.306;2023-09-30T07:03:18;11.07;;;3.22;;
75090;SDS011;63674;48.048;8.306;2023-09-30T07:05:53;10.32;;;3.55;;
75090;SDS011;63674;48.048;8.306;2023-09-30T07:08:23;12.20;;;3.58;;
75090;SDS011;63674;48.048;8.306;2023-09-30T07:10:52;11.70;;;3.72;;
75090;SDS011;63674;48.048;8.306;2023-09-30T07:13:21;11.03;;;3.13;;
75090;SDS011;63674;48.048;8.306;2023-09-30T07:15:50;12.38;;;3.50;;
75090;SDS011;63674;48.048;8.306;2023-09-30T07:18:19;12.52;;;3.42;;
75090;SDS011;63674;48.048;8.306;2023-09-30T07:20:47;11.27;;;3.42;;
75090;SDS011;63674;48.048;8.306;2023-09-30T07:23:18;11.23;;;3.20;;
75090;SDS011;63674;48.048;8.306;2023-09-30T07:25:47;12.80;;;3.27;;
75090;SDS011;63674;48.048;8.306;2023-09-30T07:28:16;10.80;;;2.75;;
75090;SDS011;63674;48.048;8.306;2023-09-30T07:30:45;10.98;;;3.30;;
75090;SDS011;63674;48.048;8.306;2023-09-30T07:33:13;10.25;;;3.05;;
75090;SDS011;63674;48.048;8.306;2023-09-30T07:35:42;11.57;;;3.17;;
75090;SDS011;63674;48.048;8.306;2023-09-30T07:38:10;15.17;;;3.37;;
75090;SDS011;63674;48.048;8.306;2023-09-30T07:40:41;11.07;;;3.13;;
75090;SDS011;63674;48.048;8.306;2023-09-30T07:43:09;11.82;;;3.05;;
75090;SDS011;63674;48.048;8.306;2023-09-30T07:45:39;10.15;;;3.28;;
75090;SDS011;63674;48.048;8.306;2023-09-30T07:48:10;10.85;;;3.38;;
75090;SDS011;63674;48.048;8.306;2023-09-30T07:50:41;11.43;;;3.10;;
75090;SDS011;63674;48.048;8.306;2023-09-30T07:53:10;11.85;;;3.13;;
75090;SDS011;63674;48.048;8.306;2023-09-30T07:55:41;11.45;;;3.42;;
75090;SDS011;63674;48.048;8.306;2023-09-30T07:58:09;11.70;;;3.60;;
75090;SDS011;63674;48.048;8.306;2023-09-30T08:00:38;11.65;;;3.30;;
75090;SDS011;63674;48.048;8.306;2023-09-30T08:03:11;11.43;;;3.27;;
75090;SDS011;63674;48.048;8.306;2023-09-30T08:05:39;13.52;;;3.58;;
75090;SDS011;63674;48.048;8.306;2023-09-30T08:08:09;10.82;;;3.17;;
75090;SDS011;63674;48.048;8.306;2023-09-30T08:10:37;10.88;;;3.08;;
75090;SDS011;63674;48.048;8.306;2023-09-30T08:13:08;12.32;;;3.58;;
75090;SDS011;63674;48.048;8.306;2023-09-30T08:15:36;13.20;;;3.73;;
75090;SDS011;63674;48.048;8.306;2023-09-30T08:18:05;12.27;;;3.40;;
75090;SDS011;63674;48.048;8.306;2023-09-30T08:20:35;10.52;;;3.03;;
75090;SDS011;63674;48.048;8.306;2023-09-30T08:23:04;11.65;;;3.30;;
75090;SDS011;63674;48.048;8.306;2023-09-30T08:25:32;12.38;;;3.53;;
75090;SDS011;63674;48.048;8.306;2023-09-30T08:28:01;11.47;;;3.57;;
75090;SDS011;63674;48.048;8.306;2023-09-30T08:30:32;14.15;;;3.75;;
75090;SDS011;63674;48.048;8.306;2023-09-30T08:33:01;14.88;;;4.40;;
75090;SDS011;63674;48.048;8.306;2023-09-30T08:35:34;11.55;;;3.90;;
75090;SDS011;63674;48.048;8.306;2023-09-30T08:38:04;11.18;;;3.58;;
75090;SDS011;63674;48.048;8.306;2023-09-30T08:40:33;11.73;;;3.63;;
75090;SDS011;63674;48.048;8.306;2023-09-30T08:43:01;12.88;;;3.90;;
75090;SDS011;63674;48.048;8.306;2023-09-30T08:45:34;12.60;;;3.70;;
75090;SDS011;63674;48.048;8.306;2023-09-30T08:48:07;13.13;;;4.10;;
75090;SDS011;63674;48.048;8.306;2023-09-30T08:50:37;16.55;;;4.30;;
75090;SDS011;63674;48.048;8.306;2023-09-30T08:53:09;15.33;;;4.20;;
75090;SDS011;63674;48.048;8.306;2023-09-30T08:55:39;13.68;;;4.43;;
75090;SDS011;63674;48.048;8.306;2023-09-30T08:58:10;13.82;;;4.18;;
75090;SDS011;63674;48.048;8.306;2023-09-30T09:00:41;15.65;;;5.03;;
75090;SDS011;63674;48.048;8.306;2023-09-30T09:03:11;15.15;;;4.75;;
75090;SDS011;63674;48.048;8.306;2023-09-30T09:05:40;15.37;;;4.80;;
75090;SDS011;63674;48.048;8.306;2023-09-30T09:08:09;16.42;;;4.70;;
75090;SDS011;63674;48.048;8.306;2023-09-30T09:10:43;17.00;;;5.00;;
75090;SDS011;63674;48.048;8.306;2023-09-30T09:13:23;14.45;;;4.45;;
75090;SDS011;63674;48.048;8.306;2023-09-30T09:18:37;14.33;;;4.60;;
75090;SDS011;63674;48.048;8.306;2023-09-30T09:21:10;16.42;;;5.55;;
75090;SDS011;63674;48.048;8.306;2023-09-30T09:23:41;15.68;;;5.00;;
75090;SDS011;63674;48.048;8.306;2023-09-30T09:26:11;18.45;;;5.65;;
75090;SDS011;63674;48.048;8.306;2023-09-30T09:28:43;17.60;;;5.50;;
75090;SDS011;63674;48.048;8.306;2023-09-30T09:31:22;16.63;;;5.43;;
75090;SDS011;63674;48.048;8.306;2023-09-30T09:33:52;15.82;;;4.90;;
75090;SDS011;63674;48.048;8.306;2023-09-30T09:36:21;15.27;;;4.88;;
75090;SDS011;63674;48.048;8.306;2023-09-30T09:39:07;17.90;;;5.45;;
75090;SDS011;63674;48.048;8.306;2023-09-30T09:41:48;16.92;;;5.80;;
75090;SDS011;63674;48.048;8.306;2023-09-30T09:44:19;15.03;;;5.30;;
75090;SDS011;63674;48.048;8.306;2023-09-30T09:46:50;16.88;;;5.50;;
75090;SDS011;63674;48.048;8.306;2023-09-30T09:49:20;16.35;;;5.30;;
75090;SDS011;63674;48.048;8.306;2023-09-30T09:51:49;16.15;;;5.35;;
75090;SDS011;63674;48.048;8.306;2023-09-30T09:54:19;18.23;;;5.68;;
75090;SDS011;63674;48.048;8.306;2023-09-30T09:56:49;19.10;;;5.87;;
75090;SDS011;63674;48.048;8.306;2023-09-30T09:59:21;15.63;;;5.53;;
75090;SDS011;63674;48.048;8.306;2023-09-30T10:01:53;15.52;;;5.38;;
75090;SDS011;63674;48.048;8.306;2023-09-30T10:04:23;18.35;;;5.97;;
75090;SDS011;63674;48.048;8.306;2023-09-30T10:06:52;16.02;;;5.38;;
75090;SDS011;63674;48.048;8.306;2023-09-30T10:09:23;17.60;;;5.53;;
75090;SDS011;63674;48.048;8.306;2023-09-30T10:11:56;16.92;;;5.35;;
75090;SDS011;63674;48.048;8.306;2023-09-30T10:14:29;16.90;;;5.07;;
75090;SDS011;63674;48.048;8.306;2023-09-30T10:17:01;16.58;;;5.80;;
75090;SDS011;63674;48.048;8.306;2023-09-30T10:19:30;15.82;;;5.38;;
75090;SDS011;63674;48.048;8.306;2023-09-30T10:22:20;16.97;;;5.20;;
75090;SDS011;63674;48.048;8.306;2023-09-30T10:24:54;14.95;;;5.05;;
75090;SDS011;63674;48.048;8.306;2023-09-30T10:30:10;17.10;;;5.75;;
75090;SDS011;63674;48.048;8.306;2023-09-30T10:35:43;18.00;;;5.67;;
75090;SDS011;63674;48.048;8.306;2023-09-30T10:41:10;18.80;;;5.60;;
75090;SDS011;63674;48.048;8.306;2023-09-30T10:47:00;19.10;;;5.90;;
75090;SDS011;63674;48.048;8.306;2023-09-30T10:50:21;18.17;;;5.90;;
75090;SDS011;63674;48.048;8.306;2023-09-30T10:53:27;16.67;;;5.38;;
75090;SDS011;63674;48.048;8.306;2023-09-30T10:55:57;14.73;;;5.50;;
75090;SDS011;63674;48.048;8.306;2023-09-30T10:58:38;16.38;;;5.65;;
75090;SDS011;63674;48.048;8.306;2023-09-30T11:01:08;16.15;;;5.63;;
75090;SDS011;63674;48.048;8.306;2023-09-30T11:03:37;16.80;;;6.20;;
75090;SDS011;63674;48.048;8.306;2023-09-30T11:06:10;15.02;;;5.28;;
75090;SDS011;63674;48.048;8.306;2023-09-30T11:08:45;17.38;;;5.75;;
75090;SDS011;63674;48.048;8.306;2023-09-30T11:11:19;13.73;;;4.80;;
75090;SDS011;63674;48.048;8.306;2023-09-30T11:13:47;17.63;;;6.15;;
75090;SDS011;63674;48.048;8.306;2023-09-30T11:16:16;15.80;;;5.40;;
75090;SDS011;63674;48.048;8.306;2023-09-30T11:18:45;17.88;;;5.70;;
75090;SDS011;63674;48.048;8.306;2023-09-30T11:21:15;15.18;;;5.32;;
75090;SDS011;63674;48.048;8.306;2023-09-30T11:23:44;15.43;;;5.00;;
75090;SDS011;63674;48.048;8.306;2023-09-30T11:26:12;18.33;;;5.43;;
75090;SDS011;63674;48.048;8.306;2023-09-30T11:28:42;16.93;;;5.73;;
75090;SDS011;63674;48.048;8.306;2023-09-30T11:31:12;16.95;;;5.68;;
75090;SDS011;63674;48.048;8.306;2023-09-30T11:33:49;16.70;;;6.00;;
75090;SDS011;63674;48.048;8.306;2023-09-30T11:36:21;19.13;;;5.35;;
75090;SDS011;63674;48.048;8.306;2023-09-30T11:38:50;15.40;;;5.25;;
75090;SDS011;63674;48.048;8.306;2023-09-30T11:41:20;16.67;;;5.60;;
75090;SDS011;63674;48.048;8.306;2023-09-30T11:43:58;17.45;;;5.63;;
75090;SDS011;63674;48.048;8.306;2023-09-30T11:46:31;16.60;;;5.50;;
75090;SDS011;63674;48.048;8.306;2023-09-30T11:49:01;15.70;;;5.43;;
75090;SDS011;63674;48.048;8.306;2023-09-30T11:51:43;16.63;;;5.60;;
75090;SDS011;63674;48.048;8.306;2023-09-30T11:54:13;15.47;;;5.53;;
75090;SDS011;63674;48.048;8.306;2023-09-30T11:56:42;17.67;;;5.97;;
75090;SDS011;63674;48.048;8.306;2023-09-30T11:59:11;15.23;;;5.47;;
75090;SDS011;63674;48.048;8.306;2023-09-30T12:01:40;17.10;;;5.80;;
75090;SDS011;63674;48.048;8.306;2023-09-30T12:04:16;17.05;;;5.75;;
75090;SDS011;63674;48.048;8.306;2023-09-30T12:06:47;17.90;;;5.67;;
75090;SDS011;63674;48.048;8.306;2023-09-30T12:09:16;16.65;;;5.30;;
75090;SDS011;63674;48.048;8.306;2023-09-30T12:11:49;18.00;;;6.00;;
75090;SDS011;63674;48.048;8.306;2023-09-30T12:14:18;16.92;;;5.78;;
75090;SDS011;63674;48.048;8.306;2023-09-30T12:16:47;17.80;;;5.85;;
75090;SDS011;63674;48.048;8.306;2023-09-30T12:19:17;17.83;;;6.53;;
75090;SDS011;63674;48.048;8.306;2023-09-30T12:21:47;16.92;;;6.22;;
75090;SDS011;63674;48.048;8.306;2023-09-30T12:24:17;16.88;;;5.60;;
75090;SDS011;63674;48.048;8.306;2023-09-30T12:26:49;17.25;;;6.00;;
75090;SDS011;63674;48.048;8.306;2023-09-30T12:29:19;16.73;;;5.45;;
75090;SDS011;63674;48.048;8.306;2023-09-30T12:31:50;16.03;;;5.53;;
75090;SDS011;63674;48.048;8.306;2023-09-30T12:34:21;16.75;;;5.57;;
75090;SDS011;63674;48.048;8.306;2023-09-30T12:36:54;19.15;;;6.13;;
75090;SDS011;63674;48.048;8.306;2023-09-30T12:39:24;16.10;;;5.45;;
75090;SDS011;63674;48.048;8.306;2023-09-30T12:41:57;18.95;;;6.20;;
75090;SDS011;63674;48.048;8.306;2023-09-30T12:44:25;16.73;;;5.87;;
75090;SDS011;63674;48.048;8.306;2023-09-30T12:46:54;16.63;;;6.18;;
75090;SDS011;63674;48.048;8.306;2023-09-30T12:49:22;17.27;;;5.93;;
75090;SDS011;63674;48.048;8.306;2023-09-30T12:51:51;16.52;;;5.82;;
75090;SDS011;63674;48.048;8.306;2023-09-30T12:54:22;16.38;;;5.40;;
75090;SDS011;63674;48.048;8.306;2023-09-30T12:56:51;14.77;;;5.57;;
75090;SDS011;63674;48.048;8.306;2023-09-30T12:59:20;16.48;;;5.90;;
75090;SDS011;63674;48.048;8.306;2023-09-30T13:01:52;18.13;;;6.30;;
75090;SDS011;63674;48.048;8.306;2023-09-30T13:04:21;16.38;;;5.85;;
75090;SDS011;63674;48.048;8.306;2023-09-30T13:06:50;17.13;;;5.68;;
75090;SDS011;63674;48.048;8.306;2023-09-30T13:09:20;15.07;;;5.40;;
75090;SDS011;63674;48.048;8.306;2023-09-30T13:11:49;17.90;;;6.07;;
75090;SDS011;63674;48.048;8.306;2023-09-30T13:14:18;16.83;;;6.03;;
75090;SDS011;63674;48.048;8.306;2023-09-30T13:16:46;15.13;;;5.55;;
75090;SDS011;63674;48.048;8.306;2023-09-30T13:19:15;16.77;;;6.22;;
75090;SDS011;63674;48.048;8.306;2023-09-30T13:21:48;15.67;;;5.67;;
75090;SDS011;63674;48.048;8.306;2023-09-30T13:24:17;15.38;;;5.57;;
75090;SDS011;63674;48.048;8.306;2023-09-30T13:26:47;18.60;;;6.13;;
75090;SDS011;63674;48.048;8.306;2023-09-30T13:29:19;20.27;;;6.13;;
75090;SDS011;63674;48.048;8.306;2023-09-30T13:31:47;17.15;;;5.90;;
75090;SDS011;63674;48.048;8.306;2023-09-30T13:34:16;17.03;;;5.93;;
75090;SDS011;63674;48.048;8.306;2023-09-30T13:36:45;18.50;;;6.18;;
75090;SDS011;63674;48.048;8.306;2023-09-30T13:39:13;18.45;;;6.10;;
75090;SDS011;63674;48.048;8.306;2023-09-30T13:41:44;17.30;;;6.10;;
75090;SDS011;63674;48.048;8.306;2023-09-30T13:44:14;19.00;;;6.15;;
75090;SDS011;63674;48.048;8.306;2023-09-30T13:46:43;16.13;;;5.60;;
75090;SDS011;63674;48.048;8.306;2023-09-30T13:49:12;16.58;;;6.03;;
75090;SDS011;63674;48.048;8.306;2023-09-30T13:51:41;15.77;;;5.45;;
75090;SDS011;63674;48.048;8.306;2023-09-30T13:54:09;15.60;;;5.68;;
75090;SDS011;63674;48.048;8.306;2023-09-30T13:56:38;16.05;;;5.68;;
75090;SDS011;63674;48.048;8.306;2023-09-30T13:59:06;17.10;;;6.00;;
75090;SDS011;63674;48.048;8.306;2023-09-30T14:01:38;16.50;;;5.97;;
75090;SDS011;63674;48.048;8.306;2023-09-30T14:04:08;16.17;;;6.10;;
75090;SDS011;63674;48.048;8.306;2023-09-30T14:06:37;16.02;;;5.80;;
75090;SDS011;63674;48.048;8.306;2023-09-30T14:09:06;15.70;;;5.63;;
75090;SDS011;63674;48.048;8.306;2023-09-30T14:11:58;16.27;;;5.37;;
75090;SDS011;63674;48.048;8.306;2023-09-30T14:14:27;15.50;;;5.47;;
75090;SDS011;63674;48.048;8.306;2023-09-30T14:16:57;16.48;;;5.60;;
75090;SDS011;63674;48.048;8.306;2023-09-30T14:19:26;14.50;;;5.43;;
75090;SDS011;63674;48.048;8.306;2023-09-30T14:21:55;14.02;;;5.63;;
75090;SDS011;63674;48.048;8.306;2023-09-30T14:24:24;16.53;;;5.63;;
75090;SDS011;63674;48.048;8.306;2023-09-30T14:26:53;15.00;;;6.05;;
75090;SDS011;63674;48.048;8.306;2023-09-30T14:29:22;15.27;;;5.10;;
75090;SDS011;63674;48.048;8.306;2023-09-30T14:31:51;16.48;;;5.35;;
75090;SDS011;63674;48.048;8.306;2023-09-30T14:34:21;13.65;;;4.80;;
75090;SDS011;63674;48.048;8.306;2023-09-30T14:36:50;15.73;;;5.20;;
75090;SDS011;63674;48.048;8.306;2023-09-30T14:39:19;14.82;;;5.13;;
75090;SDS011;63674;48.048;8.306;2023-09-30T14:41:47;15.93;;;5.60;;
75090;SDS011;63674;48.048;8.306;2023-09-30T14:44:16;13.30;;;5.00;;
75090;SDS011;63674;48.048;8.306;2023-09-30T14:46:47;14.43;;;5.60;;
75090;SDS011;63674;48.048;8.306;2023-09-30T14:49:16;14.77;;;5.27;;
75090;SDS011;63674;48.048;8.306;2023-09-30T14:51:46;16.17;;;4.95;;
75090;SDS011;63674;48.048;8.306;2023-09-30T14:54:16;13.48;;;5.22;;
75090;SDS011;63674;48.048;8.306;2023-09-30T14:56:44;13.95;;;5.13;;
75090;SDS011;63674;48.048;8.306;2023-09-30T14:59:13;14.38;;;5.07;;
75090;SDS011;63674;48.048;8.306;2023-09-30T15:01:41;15.20;;;4.57;;
75090;SDS011;63674;48.048;8.306;2023-09-30T15:04:10;13.88;;;5.03;;
75090;SDS011;63674;48.048;8.306;2023-09-30T15:06:39;15.95;;;5.00;;
75090;SDS011;63674;48.048;8.306;2023-09-30T15:09:09;14.13;;;4.78;;
75090;SDS011;63674;48.048;8.306;2023-09-30T15:11:38;13.70;;;4.85;;
75090;SDS011;63674;48.048;8.306;2023-09-30T15:14:07;17.17;;;5.80;;
75090;SDS011;63674;48.048;8.306;2023-09-30T15:16:36;15.30;;;5.38;;
75090;SDS011;63674;48.048;8.306;2023-09-30T15:19:05;15.18;;;5.32;;
75090;SDS011;63674;48.048;8.306;2023-09-30T15:21:34;14.75;;;4.88;;
75090;SDS011;63674;48.048;8.306;2023-09-30T15:24:03;15.10;;;5.03;;
75090;SDS011;63674;48.048;8.306;2023-09-30T15:26:34;15.30;;;5.30;;